MMMA/MAM METAR and TAF weather

Enter ICAO airport designator
Station Type Date Time Source
MMMA METAR 2018/12/19 01:41 UTC NOAA

MMMA 190141Z 00000KT 7SM BKN080 17/13 A2992 RMK 8/050 HZY ISOL CI


Station Type Date Time Source
MMMA Decoded METAR 2018/12/19 01:41 UTC NOAA

Matamoros International , Mexico (MMMA) 25-46N 097-32W
Dec 18, 2018 - 08:41 PM EST / 2018.12.19 0141 UTC
Wind: Calm:0
Visibility: 7 mile(s):0
Sky conditions: mostly cloudy
Temperature: 62 F (17 C)
Dew Point: 55 F (13 C)
Relative Humidity: 77%
Pressure (altimeter): 29.92 in. Hg (1013 hPa)
ob: MMMA 190141Z 00000KT 7SM BKN080 17/13 A2992 RMK 8/050 HZY ISOL CI
cycle: 1

Station Type Date Time Source
MMMA TAF 2018/12/19 06:30 UTC NOAA

TAF MMMA 190526Z 1906/2006 00000KT P6SM BKN080
FM191000 34006KT 3SM BR HZ BKN010
TEMPO 1911/1915 1SM BR HZ BKN005
FM191800 35015KT P6SM BKN020 BKN250
FM200500 36008KT P6SM SCT020 BKN080


Example: see airport list